sensor_id;sensor_type;location;lat;lon;timestamp;temperature;humidity
29849;DHT22;16728;50.832;5.590;2023-07-13T00:00:50;18.40;99.90
29849;DHT22;16728;50.832;5.590;2023-07-13T00:03:52;18.40;99.90
29849;DHT22;16728;50.832;5.590;2023-07-13T00:06:54;18.30;99.90
29849;DHT22;16728;50.832;5.590;2023-07-13T00:09:57;18.30;99.90
29849;DHT22;16728;50.832;5.590;2023-07-13T00:13:01;18.40;99.90
29849;DHT22;16728;50.832;5.590;2023-07-13T00:16:03;18.30;99.90
29849;DHT22;16728;50.832;5.590;2023-07-13T00:19:05;18.40;99.90
29849;DHT22;16728;50.832;5.590;2023-07-13T00:22:08;18.30;99.90
29849;DHT22;16728;50.832;5.590;2023-07-13T00:25:13;18.30;99.90
29849;DHT22;16728;50.832;5.590;2023-07-13T00:28:18;18.40;99.90
29849;DHT22;16728;50.832;5.590;2023-07-13T00:31:20;18.40;99.90
29849;DHT22;16728;50.832;5.590;2023-07-13T00:34:22;18.30;99.90
29849;DHT22;16728;50.832;5.590;2023-07-13T00:37:25;18.30;99.90
29849;DHT22;16728;50.832;5.590;2023-07-13T00:40:28;18.30;99.90
29849;DHT22;16728;50.832;5.590;2023-07-13T00:43:30;18.30;99.90
29849;DHT22;16728;50.832;5.590;2023-07-13T00:46:33;18.20;99.90
29849;DHT22;16728;50.832;5.590;2023-07-13T00:49:36;18.10;99.90
29849;DHT22;16728;50.832;5.590;2023-07-13T00:52:41;18.10;99.90
29849;DHT22;16728;50.832;5.590;2023-07-13T00:55:45;18.00;99.90
29849;DHT22;16728;50.832;5.590;2023-07-13T00:58:48;18.10;99.90
29849;DHT22;16728;50.832;5.590;2023-07-13T01:01:50;18.10;99.90
29849;DHT22;16728;50.832;5.590;2023-07-13T01:04:52;18.10;99.90
29849;DHT22;16728;50.832;5.590;2023-07-13T01:07:54;18.00;99.90
29849;DHT22;16728;50.832;5.590;2023-07-13T01:10:57;18.00;99.90
29849;DHT22;16728;50.832;5.590;2023-07-13T01:14:00;17.90;99.90
29849;DHT22;16728;50.832;5.590;2023-07-13T01:17:03;17.90;99.90
29849;DHT22;16728;50.832;5.590;2023-07-13T01:20:06;17.90;99.90
29849;DHT22;16728;50.832;5.590;2023-07-13T01:23:11;17.90;99.90
29849;DHT22;16728;50.832;5.590;2023-07-13T01:26:15;18.00;99.90
29849;DHT22;16728;50.832;5.590;2023-07-13T01:29:16;18.00;99.90
29849;DHT22;16728;50.832;5.590;2023-07-13T01:32:21;18.00;99.90
29849;DHT22;16728;50.832;5.590;2023-07-13T01:35:26;18.00;99.90
29849;DHT22;16728;50.832;5.590;2023-07-13T01:38:28;17.90;99.90
29849;DHT22;16728;50.832;5.590;2023-07-13T01:41:31;17.90;99.90
29849;DHT22;16728;50.832;5.590;2023-07-13T01:44:33;17.80;99.90
29849;DHT22;16728;50.832;5.590;2023-07-13T01:47:35;17.70;99.90
29849;DHT22;16728;50.832;5.590;2023-07-13T01:50:38;17.70;99.90
29849;DHT22;16728;50.832;5.590;2023-07-13T01:53:41;17.70;99.90
29849;DHT22;16728;50.832;5.590;2023-07-13T01:56:43;17.70;99.90
29849;DHT22;16728;50.832;5.590;2023-07-13T01:59:45;17.80;99.90
29849;DHT22;16728;50.832;5.590;2023-07-13T02:02:50;17.70;99.90
29849;DHT22;16728;50.832;5.590;2023-07-13T02:05:53;17.60;99.90
29849;DHT22;16728;50.832;5.590;2023-07-13T02:08:55;17.70;99.90
29849;DHT22;16728;50.832;5.590;2023-07-13T02:11:57;17.60;99.90
29849;DHT22;16728;50.832;5.590;2023-07-13T02:14:59;17.50;99.90
29849;DHT22;16728;50.832;5.590;2023-07-13T02:18:01;17.60;99.90
29849;DHT22;16728;50.832;5.590;2023-07-13T02:21:05;17.60;99.90
29849;DHT22;16728;50.832;5.590;2023-07-13T02:24:07;17.60;99.90
29849;DHT22;16728;50.832;5.590;2023-07-13T02:27:09;17.60;99.90
29849;DHT22;16728;50.832;5.590;2023-07-13T02:30:11;17.60;99.90
29849;DHT22;16728;50.832;5.590;2023-07-13T02:33:13;17.60;99.90
29849;DHT22;16728;50.832;5.590;2023-07-13T02:36:15;17.60;99.90
29849;DHT22;16728;50.832;5.590;2023-07-13T02:39:18;17.50;99.90
29849;DHT22;16728;50.832;5.590;2023-07-13T02:42:20;17.40;99.90
29849;DHT22;16728;50.832;5.590;2023-07-13T02:45:22;17.40;99.90
29849;DHT22;16728;50.832;5.590;2023-07-13T02:48:24;17.30;99.90
29849;DHT22;16728;50.832;5.590;2023-07-13T02:51:26;17.30;99.90
29849;DHT22;16728;50.832;5.590;2023-07-13T02:54:28;17.30;99.90
29849;DHT22;16728;50.832;5.590;2023-07-13T02:57:30;17.30;99.90
29849;DHT22;16728;50.832;5.590;2023-07-13T03:00:34;17.30;99.90
29849;DHT22;16728;50.832;5.590;2023-07-13T03:03:42;17.30;99.90
29849;DHT22;16728;50.832;5.590;2023-07-13T03:06:45;17.20;99.90
29849;DHT22;16728;50.832;5.590;2023-07-13T03:09:48;17.30;99.90
29849;DHT22;16728;50.832;5.590;2023-07-13T03:12:50;17.20;99.90
29849;DHT22;16728;50.832;5.590;2023-07-13T03:15:52;17.20;99.90
29849;DHT22;16728;50.832;5.590;2023-07-13T03:18:54;17.20;99.90
29849;DHT22;16728;50.832;5.590;2023-07-13T03:21:56;17.20;99.90
29849;DHT22;16728;50.832;5.590;2023-07-13T03:24:58;17.20;99.90
29849;DHT22;16728;50.832;5.590;2023-07-13T03:28:00;17.20;99.90
29849;DHT22;16728;50.832;5.590;2023-07-13T03:31:08;17.20;99.90
29849;DHT22;16728;50.832;5.590;2023-07-13T03:34:10;17.20;99.90
29849;DHT22;16728;50.832;5.590;2023-07-13T03:37:12;17.10;99.90
29849;DHT22;16728;50.832;5.590;2023-07-13T03:40:14;17.10;99.90
29849;DHT22;16728;50.832;5.590;2023-07-13T03:43:17;17.20;99.90
29849;DHT22;16728;50.832;5.590;2023-07-13T03:46:19;17.20;99.90
29849;DHT22;16728;50.832;5.590;2023-07-13T03:49:22;17.20;99.90
29849;DHT22;16728;50.832;5.590;2023-07-13T03:52:32;17.10;99.90
29849;DHT22;16728;50.832;5.590;2023-07-13T03:55:34;17.10;99.90
29849;DHT22;16728;50.832;5.590;2023-07-13T03:58:39;17.10;99.90
29849;DHT22;16728;50.832;5.590;2023-07-13T04:01:42;17.10;99.90
29849;DHT22;16728;50.832;5.590;2023-07-13T04:04:50;17.10;99.90
29849;DHT22;16728;50.832;5.590;2023-07-13T04:07:53;17.00;99.90
29849;DHT22;16728;50.832;5.590;2023-07-13T04:10:55;17.00;99.90
29849;DHT22;16728;50.832;5.590;2023-07-13T04:13:57;17.00;99.90
29849;DHT22;16728;50.832;5.590;2023-07-13T04:16:59;17.00;99.90
29849;DHT22;16728;50.832;5.590;2023-07-13T04:20:01;17.10;99.90
29849;DHT22;16728;50.832;5.590;2023-07-13T04:23:03;16.90;99.90
29849;DHT22;16728;50.832;5.590;2023-07-13T04:26:05;16.90;99.90
29849;DHT22;16728;50.832;5.590;2023-07-13T04:29:08;16.90;99.90
29849;DHT22;16728;50.832;5.590;2023-07-13T04:32:10;16.90;99.90
29849;DHT22;16728;50.832;5.590;2023-07-13T04:35:12;17.00;99.90
29849;DHT22;16728;50.832;5.590;2023-07-13T04:38:16;17.10;99.90
29849;DHT22;16728;50.832;5.590;2023-07-13T04:41:18;17.10;99.90
29849;DHT22;16728;50.832;5.590;2023-07-13T04:44:20;17.10;99.90
29849;DHT22;16728;50.832;5.590;2023-07-13T04:47:22;17.10;99.90
29849;DHT22;16728;50.832;5.590;2023-07-13T04:50:24;17.20;99.90
29849;DHT22;16728;50.832;5.590;2023-07-13T04:53:26;17.30;99.90
29849;DHT22;16728;50.832;5.590;2023-07-13T04:56:28;17.30;99.90
29849;DHT22;16728;50.832;5.590;2023-07-13T04:59:35;17.30;99.90
29849;DHT22;16728;50.832;5.590;2023-07-13T05:02:38;17.40;99.90
29849;DHT22;16728;50.832;5.590;2023-07-13T05:05:40;17.40;99.90
29849;DHT22;16728;50.832;5.590;2023-07-13T05:08:42;17.30;99.90
29849;DHT22;16728;50.832;5.590;2023-07-13T05:11:44;17.40;99.90
29849;DHT22;16728;50.832;5.590;2023-07-13T05:14:46;17.40;99.90
29849;DHT22;16728;50.832;5.590;2023-07-13T05:17:50;17.40;99.90
29849;DHT22;16728;50.832;5.590;2023-07-13T05:21:05;17.40;99.90
29849;DHT22;16728;50.832;5.590;2023-07-13T05:24:07;17.40;99.90
29849;DHT22;16728;50.832;5.590;2023-07-13T05:27:25;17.50;99.90
29849;DHT22;16728;50.832;5.590;2023-07-13T05:30:28;17.50;99.90
29849;DHT22;16728;50.832;5.590;2023-07-13T05:33:30;17.60;99.90
29849;DHT22;16728;50.832;5.590;2023-07-13T05:36:32;17.60;99.90
29849;DHT22;16728;50.832;5.590;2023-07-13T05:39:33;17.70;99.90
29849;DHT22;16728;50.832;5.590;2023-07-13T05:42:35;17.60;99.90
29849;DHT22;16728;50.832;5.590;2023-07-13T05:45:37;17.60;99.90
29849;DHT22;16728;50.832;5.590;2023-07-13T05:48:41;17.70;99.90
29849;DHT22;16728;50.832;5.590;2023-07-13T05:51:43;17.70;99.90
29849;DHT22;16728;50.832;5.590;2023-07-13T05:54:45;17.70;99.90
29849;DHT22;16728;50.832;5.590;2023-07-13T05:57:47;17.60;99.90
29849;DHT22;16728;50.832;5.590;2023-07-13T06:00:59;17.70;99.90
29849;DHT22;16728;50.832;5.590;2023-07-13T06:04:02;17.70;99.90
29849;DHT22;16728;50.832;5.590;2023-07-13T06:07:04;17.70;99.90
29849;DHT22;16728;50.832;5.590;2023-07-13T06:10:06;17.80;99.90
29849;DHT22;16728;50.832;5.590;2023-07-13T06:13:08;17.80;99.90
29849;DHT22;16728;50.832;5.590;2023-07-13T06:16:12;17.90;99.90
29849;DHT22;16728;50.832;5.590;2023-07-13T06:19:14;17.90;99.90
29849;DHT22;16728;50.832;5.590;2023-07-13T06:22:16;17.90;99.90
29849;DHT22;16728;50.832;5.590;2023-07-13T06:25:18;18.00;99.90
29849;DHT22;16728;50.832;5.590;2023-07-13T06:28:20;18.00;99.90
29849;DHT22;16728;50.832;5.590;2023-07-13T06:31:22;18.00;99.90
29849;DHT22;16728;50.832;5.590;2023-07-13T06:34:24;18.10;99.90
29849;DHT22;16728;50.832;5.590;2023-07-13T06:37:26;18.10;99.90
29849;DHT22;16728;50.832;5.590;2023-07-13T06:40:28;18.10;99.90
29849;DHT22;16728;50.832;5.590;2023-07-13T06:43:32;18.20;99.90
29849;DHT22;16728;50.832;5.590;2023-07-13T06:46:34;18.20;99.90
29849;DHT22;16728;50.832;5.590;2023-07-13T06:49:39;18.20;99.90
29849;DHT22;16728;50.832;5.590;2023-07-13T06:52:44;18.20;99.90
29849;DHT22;16728;50.832;5.590;2023-07-13T06:55:47;18.30;99.90
29849;DHT22;16728;50.832;5.590;2023-07-13T06:58:49;18.30;99.90
29849;DHT22;16728;50.832;5.590;2023-07-13T07:02:00;18.40;99.90
29849;DHT22;16728;50.832;5.590;2023-07-13T07:05:02;18.40;99.90
29849;DHT22;16728;50.832;5.590;2023-07-13T07:08:04;18.50;99.90
29849;DHT22;16728;50.832;5.590;2023-07-13T07:11:11;18.50;99.90
29849;DHT22;16728;50.832;5.590;2023-07-13T07:14:13;18.50;99.90
29849;DHT22;16728;50.832;5.590;2023-07-13T07:17:15;18.50;99.90
29849;DHT22;16728;50.832;5.590;2023-07-13T07:20:21;18.50;99.90
29849;DHT22;16728;50.832;5.590;2023-07-13T07:31:21;18.70;99.90
29849;DHT22;16728;50.832;5.590;2023-07-13T07:34:37;18.60;99.90
29849;DHT22;16728;50.832;5.590;2023-07-13T07:41:05;18.70;99.90
29849;DHT22;16728;50.832;5.590;2023-07-13T07:44:09;18.70;99.90
29849;DHT22;16728;50.832;5.590;2023-07-13T07:47:12;18.70;99.90
29849;DHT22;16728;50.832;5.590;2023-07-13T07:50:14;18.70;99.90
29849;DHT22;16728;50.832;5.590;2023-07-13T07:53:16;18.70;99.90
29849;DHT22;16728;50.832;5.590;2023-07-13T07:56:17;18.70;99.90
29849;DHT22;16728;50.832;5.590;2023-07-13T07:59:23;18.80;99.90
29849;DHT22;16728;50.832;5.590;2023-07-13T08:02:28;18.80;99.90
29849;DHT22;16728;50.832;5.590;2023-07-13T08:05:36;18.80;99.90
29849;DHT22;16728;50.832;5.590;2023-07-13T08:09:06;18.80;99.90
29849;DHT22;16728;50.832;5.590;2023-07-13T08:12:10;18.80;99.90
29849;DHT22;16728;50.832;5.590;2023-07-13T08:15:18;18.80;99.90
29849;DHT22;16728;50.832;5.590;2023-07-13T08:18:22;18.80;99.90
29849;DHT22;16728;50.832;5.590;2023-07-13T08:21:24;18.80;99.90
29849;DHT22;16728;50.832;5.590;2023-07-13T08:24:26;18.90;99.90
29849;DHT22;16728;50.832;5.590;2023-07-13T08:27:28;18.90;99.90
29849;DHT22;16728;50.832;5.590;2023-07-13T08:30:30;19.00;99.90
29849;DHT22;16728;50.832;5.590;2023-07-13T08:33:35;19.10;99.90
29849;DHT22;16728;50.832;5.590;2023-07-13T08:36:37;19.20;99.90
29849;DHT22;16728;50.832;5.590;2023-07-13T08:39:39;19.30;99.90
29849;DHT22;16728;50.832;5.590;2023-07-13T08:42:46;19.30;99.90
29849;DHT22;16728;50.832;5.590;2023-07-13T08:49:13;19.40;99.90
29849;DHT22;16728;50.832;5.590;2023-07-13T08:52:40;19.50;99.90
29849;DHT22;16728;50.832;5.590;2023-07-13T08:55:43;19.60;99.90
29849;DHT22;16728;50.832;5.590;2023-07-13T08:58:48;19.70;99.90
29849;DHT22;16728;50.832;5.590;2023-07-13T09:05:37;19.80;99.90
29849;DHT22;16728;50.832;5.590;2023-07-13T09:08:59;19.90;99.90
29849;DHT22;16728;50.832;5.590;2023-07-13T09:15:30;20.00;99.90
29849;DHT22;16728;50.832;5.590;2023-07-13T09:21:38;20.10;99.90
29849;DHT22;16728;50.832;5.590;2023-07-13T09:24:52;20.10;99.90
29849;DHT22;16728;50.832;5.590;2023-07-13T09:28:23;20.10;99.90
29849;DHT22;16728;50.832;5.590;2023-07-13T09:31:33;20.20;99.90
29849;DHT22;16728;50.832;5.590;2023-07-13T09:34:52;20.30;99.90
29849;DHT22;16728;50.832;5.590;2023-07-13T09:38:10;20.30;99.90
29849;DHT22;16728;50.832;5.590;2023-07-13T09:41:57;20.20;99.90
29849;DHT22;16728;50.832;5.590;2023-07-13T09:45:01;20.30;99.90
29849;DHT22;16728;50.832;5.590;2023-07-13T09:48:13;20.30;99.90
29849;DHT22;16728;50.832;5.590;2023-07-13T09:51:15;20.30;99.90
29849;DHT22;16728;50.832;5.590;2023-07-13T09:54:24;20.40;99.90
29849;DHT22;16728;50.832;5.590;2023-07-13T09:57:27;20.40;99.90
29849;DHT22;16728;50.832;5.590;2023-07-13T10:01:00;20.50;99.90
29849;DHT22;16728;50.832;5.590;2023-07-13T10:04:11;20.60;99.90
29849;DHT22;16728;50.832;5.590;2023-07-13T10:07:14;20.70;99.90
29849;DHT22;16728;50.832;5.590;2023-07-13T10:10:30;20.80;99.90
29849;DHT22;16728;50.832;5.590;2023-07-13T10:13:35;21.00;99.90
29849;DHT22;16728;50.832;5.590;2023-07-13T10:16:39;21.00;99.90
29849;DHT22;16728;50.832;5.590;2023-07-13T10:19:48;21.10;99.90
29849;DHT22;16728;50.832;5.590;2023-07-13T10:23:11;21.10;99.90
29849;DHT22;16728;50.832;5.590;2023-07-13T10:26:21;21.10;99.90
29849;DHT22;16728;50.832;5.590;2023-07-13T10:29:27;21.10;99.90
29849;DHT22;16728;50.832;5.590;2023-07-13T10:32:30;21.10;99.90
29849;DHT22;16728;50.832;5.590;2023-07-13T10:35:33;21.20;99.90
29849;DHT22;16728;50.832;5.590;2023-07-13T10:38:35;21.20;99.90
29849;DHT22;16728;50.832;5.590;2023-07-13T10:41:40;21.20;99.90
29849;DHT22;16728;50.832;5.590;2023-07-13T10:44:42;21.20;99.90
29849;DHT22;16728;50.832;5.590;2023-07-13T10:47:45;21.20;99.90
29849;DHT22;16728;50.832;5.590;2023-07-13T10:50:50;21.20;99.90
29849;DHT22;16728;50.832;5.590;2023-07-13T10:57:20;21.30;99.90
29849;DHT22;16728;50.832;5.590;2023-07-13T11:00:23;21.40;99.90
29849;DHT22;16728;50.832;5.590;2023-07-13T11:03:28;21.60;99.90
29849;DHT22;16728;50.832;5.590;2023-07-13T11:06:38;21.70;99.90
29849;DHT22;16728;50.832;5.590;2023-07-13T11:09:42;21.80;99.90
29849;DHT22;16728;50.832;5.590;2023-07-13T11:12:54;22.00;99.90
29849;DHT22;16728;50.832;5.590;2023-07-13T11:15:56;22.10;99.90
29849;DHT22;16728;50.832;5.590;2023-07-13T11:25:29;22.00;99.90
29849;DHT22;16728;50.832;5.590;2023-07-13T11:28:31;21.80;99.90
29849;DHT22;16728;50.832;5.590;2023-07-13T11:31:34;21.80;99.90
29849;DHT22;16728;50.832;5.590;2023-07-13T11:34:38;21.70;99.90
29849;DHT22;16728;50.832;5.590;2023-07-13T11:37:40;21.70;99.90
29849;DHT22;16728;50.832;5.590;2023-07-13T11:40:45;21.80;99.90
29849;DHT22;16728;50.832;5.590;2023-07-13T11:44:14;21.90;99.90
29849;DHT22;16728;50.832;5.590;2023-07-13T11:47:23;22.00;99.90
29849;DHT22;16728;50.832;5.590;2023-07-13T11:50:27;22.00;99.90
29849;DHT22;16728;50.832;5.590;2023-07-13T11:53:37;22.00;99.90
29849;DHT22;16728;50.832;5.590;2023-07-13T11:56:40;22.10;99.90
29849;DHT22;16728;50.832;5.590;2023-07-13T11:59:43;22.30;99.90
29849;DHT22;16728;50.832;5.590;2023-07-13T12:03:02;22.40;99.90
29849;DHT22;16728;50.832;5.590;2023-07-13T12:06:27;22.50;99.90
29849;DHT22;16728;50.832;5.590;2023-07-13T12:09:34;22.50;99.90
29849;DHT22;16728;50.832;5.590;2023-07-13T12:13:08;22.50;99.80
29849;DHT22;16728;50.832;5.590;2023-07-13T12:16:23;22.60;99.80
29849;DHT22;16728;50.832;5.590;2023-07-13T12:19:28;22.70;99.40
29849;DHT22;16728;50.832;5.590;2023-07-13T12:22:30;22.80;99.20
29849;DHT22;16728;50.832;5.590;2023-07-13T12:25:35;22.80;98.80
29849;DHT22;16728;50.832;5.590;2023-07-13T12:28:44;22.80;98.50
29849;DHT22;16728;50.832;5.590;2023-07-13T12:31:49;22.90;98.80
29849;DHT22;16728;50.832;5.590;2023-07-13T12:34:55;22.90;98.70
29849;DHT22;16728;50.832;5.590;2023-07-13T12:37:58;23.00;98.30
29849;DHT22;16728;50.832;5.590;2023-07-13T12:41:02;23.10;98.10
29849;DHT22;16728;50.832;5.590;2023-07-13T12:44:11;23.10;97.70
29849;DHT22;16728;50.832;5.590;2023-07-13T12:47:15;23.10;97.30
29849;DHT22;16728;50.832;5.590;2023-07-13T12:50:21;23.00;97.60
29849;DHT22;16728;50.832;5.590;2023-07-13T12:53:29;23.10;97.70
29849;DHT22;16728;50.832;5.590;2023-07-13T12:56:34;23.00;97.80
29849;DHT22;16728;50.832;5.590;2023-07-13T12:59:37;23.10;97.60
29849;DHT22;16728;50.832;5.590;2023-07-13T13:02:39;23.10;97.10
29849;DHT22;16728;50.832;5.590;2023-07-13T13:05:42;23.10;96.70
29849;DHT22;16728;50.832;5.590;2023-07-13T13:08:53;23.20;97.00
29849;DHT22;16728;50.832;5.590;2023-07-13T13:11:55;23.30;95.90
29849;DHT22;16728;50.832;5.590;2023-07-13T13:14:57;23.30;95.90
29849;DHT22;16728;50.832;5.590;2023-07-13T13:17:58;23.40;95.90
29849;DHT22;16728;50.832;5.590;2023-07-13T13:21:01;23.30;96.00
29849;DHT22;16728;50.832;5.590;2023-07-13T13:24:10;23.30;95.60
29849;DHT22;16728;50.832;5.590;2023-07-13T13:27:17;23.20;95.80
29849;DHT22;16728;50.832;5.590;2023-07-13T13:30:19;23.20;96.00
29849;DHT22;16728;50.832;5.590;2023-07-13T13:33:23;23.20;95.90
29849;DHT22;16728;50.832;5.590;2023-07-13T13:36:25;23.20;96.20
29849;DHT22;16728;50.832;5.590;2023-07-13T13:39:34;23.20;96.30
29849;DHT22;16728;50.832;5.590;2023-07-13T13:42:36;23.20;96.60
29849;DHT22;16728;50.832;5.590;2023-07-13T13:45:39;23.10;96.40
29849;DHT22;16728;50.832;5.590;2023-07-13T13:48:41;23.10;96.40
29849;DHT22;16728;50.832;5.590;2023-07-13T13:51:44;23.00;96.10
29849;DHT22;16728;50.832;5.590;2023-07-13T13:54:46;23.00;96.60
29849;DHT22;16728;50.832;5.590;2023-07-13T13:57:48;22.90;96.80
29849;DHT22;16728;50.832;5.590;2023-07-13T14:00:50;22.90;97.40
29849;DHT22;16728;50.832;5.590;2023-07-13T14:03:54;22.80;96.80
29849;DHT22;16728;50.832;5.590;2023-07-13T14:06:56;22.80;97.00
29849;DHT22;16728;50.832;5.590;2023-07-13T14:09:59;22.70;96.90
29849;DHT22;16728;50.832;5.590;2023-07-13T14:13:02;22.60;97.30
29849;DHT22;16728;50.832;5.590;2023-07-13T14:16:16;22.50;97.60
29849;DHT22;16728;50.832;5.590;2023-07-13T14:19:23;22.20;99.90
29849;DHT22;16728;50.832;5.590;2023-07-13T14:22:26;21.90;99.90
29849;DHT22;16728;50.832;5.590;2023-07-13T14:25:29;21.60;99.90
29849;DHT22;16728;50.832;5.590;2023-07-13T14:28:32;21.30;99.90
29849;DHT22;16728;50.832;5.590;2023-07-13T14:31:34;21.20;99.90
29849;DHT22;16728;50.832;5.590;2023-07-13T14:34:36;21.00;99.90
29849;DHT22;16728;50.832;5.590;2023-07-13T14:37:39;20.80;99.90
29849;DHT22;16728;50.832;5.590;2023-07-13T14:40:42;20.70;99.90
29849;DHT22;16728;50.832;5.590;2023-07-13T14:43:44;20.70;99.90
29849;DHT22;16728;50.832;5.590;2023-07-13T14:46:46;20.60;99.90
29849;DHT22;16728;50.832;5.590;2023-07-13T14:49:49;20.60;99.90
29849;DHT22;16728;50.832;5.590;2023-07-13T14:52:51;20.60;99.90
29849;DHT22;16728;50.832;5.590;2023-07-13T14:55:53;20.60;99.90
29849;DHT22;16728;50.832;5.590;2023-07-13T14:58:56;20.70;99.90
29849;DHT22;16728;50.832;5.590;2023-07-13T15:01:58;20.70;99.90
29849;DHT22;16728;50.832;5.590;2023-07-13T15:05:01;20.70;99.90
29849;DHT22;16728;50.832;5.590;2023-07-13T15:08:05;20.80;99.90
29849;DHT22;16728;50.832;5.590;2023-07-13T15:11:08;20.90;99.90
29849;DHT22;16728;50.832;5.590;2023-07-13T15:14:13;20.90;99.90
29849;DHT22;16728;50.832;5.590;2023-07-13T15:17:37;21.00;99.90
29849;DHT22;16728;50.832;5.590;2023-07-13T15:20:40;21.00;99.90
29849;DHT22;16728;50.832;5.590;2023-07-13T15:23:42;21.00;99.90
29849;DHT22;16728;50.832;5.590;2023-07-13T15:26:44;21.10;99.90
29849;DHT22;16728;50.832;5.590;2023-07-13T15:29:48;21.20;99.90
29849;DHT22;16728;50.832;5.590;2023-07-13T15:32:49;21.30;99.90
29849;DHT22;16728;50.832;5.590;2023-07-13T15:35:52;21.30;99.90
29849;DHT22;16728;50.832;5.590;2023-07-13T15:38:55;21.30;99.90
29849;DHT22;16728;50.832;5.590;2023-07-13T15:41:57;21.40;99.90
29849;DHT22;16728;50.832;5.590;2023-07-13T15:44:59;21.50;99.90
29849;DHT22;16728;50.832;5.590;2023-07-13T15:48:07;21.70;99.90
29849;DHT22;16728;50.832;5.590;2023-07-13T15:51:27;21.70;99.90
29849;DHT22;16728;50.832;5.590;2023-07-13T15:54:30;21.70;99.90
29849;DHT22;16728;50.832;5.590;2023-07-13T15:57:35;21.80;99.90
29849;DHT22;16728;50.832;5.590;2023-07-13T16:00:38;21.90;99.90
29849;DHT22;16728;50.832;5.590;2023-07-13T16:03:43;22.00;99.90
29849;DHT22;16728;50.832;5.590;2023-07-13T16:06:46;22.10;99.90
29849;DHT22;16728;50.832;5.590;2023-07-13T16:09:48;22.10;99.90
29849;DHT22;16728;50.832;5.590;2023-07-13T16:12:51;22.20;99.90
29849;DHT22;16728;50.832;5.590;2023-07-13T16:15:53;22.20;99.90
29849;DHT22;16728;50.832;5.590;2023-07-13T16:19:01;22.30;99.90
29849;DHT22;16728;50.832;5.590;2023-07-13T16:22:03;22.30;99.90
29849;DHT22;16728;50.832;5.590;2023-07-13T16:25:20;22.20;99.90
29849;DHT22;16728;50.832;5.590;2023-07-13T16:28:22;22.30;99.90
29849;DHT22;16728;50.832;5.590;2023-07-13T16:31:24;22.30;99.90
29849;DHT22;16728;50.832;5.590;2023-07-13T16:34:27;22.30;99.90
29849;DHT22;16728;50.832;5.590;2023-07-13T16:37:30;22.30;99.90
29849;DHT22;16728;50.832;5.590;2023-07-13T16:40:33;22.30;99.90
29849;DHT22;16728;50.832;5.590;2023-07-13T16:43:35;22.20;99.90
29849;DHT22;16728;50.832;5.590;2023-07-13T16:49:57;22.30;99.90
29849;DHT22;16728;50.832;5.590;2023-07-13T16:52:59;22.30;99.90
29849;DHT22;16728;50.832;5.590;2023-07-13T16:56:15;22.30;99.90
29849;DHT22;16728;50.832;5.590;2023-07-13T16:59:19;22.20;99.90
29849;DHT22;16728;50.832;5.590;2023-07-13T17:02:32;22.20;99.90
29849;DHT22;16728;50.832;5.590;2023-07-13T17:05:39;22.20;99.90
29849;DHT22;16728;50.832;5.590;2023-07-13T17:08:47;22.20;99.90
29849;DHT22;16728;50.832;5.590;2023-07-13T17:11:50;22.30;99.90
29849;DHT22;16728;50.832;5.590;2023-07-13T17:14:53;22.20;99.90
29849;DHT22;16728;50.832;5.590;2023-07-13T17:17:55;22.20;99.90
29849;DHT22;16728;50.832;5.590;2023-07-13T17:21:14;22.20;99.90
29849;DHT22;16728;50.832;5.590;2023-07-13T17:24:21;22.20;99.90
29849;DHT22;16728;50.832;5.590;2023-07-13T17:27:25;22.20;99.70
29849;DHT22;16728;50.832;5.590;2023-07-13T17:30:28;22.30;99.60
29849;DHT22;16728;50.832;5.590;2023-07-13T17:36:39;22.40;99.40
29849;DHT22;16728;50.832;5.590;2023-07-13T17:39:42;22.40;99.40
29849;DHT22;16728;50.832;5.590;2023-07-13T17:42:45;22.40;99.30
29849;DHT22;16728;50.832;5.590;2023-07-13T17:45:47;22.40;99.50
29849;DHT22;16728;50.832;5.590;2023-07-13T17:48:50;22.50;99.40
29849;DHT22;16728;50.832;5.590;2023-07-13T17:51:55;22.50;98.80
29849;DHT22;16728;50.832;5.590;2023-07-13T17:54:59;22.50;98.60
29849;DHT22;16728;50.832;5.590;2023-07-13T17:58:04;22.50;98.40
29849;DHT22;16728;50.832;5.590;2023-07-13T18:01:10;22.50;98.50
29849;DHT22;16728;50.832;5.590;2023-07-13T18:04:16;22.50;98.40
29849;DHT22;16728;50.832;5.590;2023-07-13T18:07:19;22.50;98.30
29849;DHT22;16728;50.832;5.590;2023-07-13T18:10:23;22.40;98.40
29849;DHT22;16728;50.832;5.590;2023-07-13T18:13:26;22.40;98.20
29849;DHT22;16728;50.832;5.590;2023-07-13T18:16:29;22.40;98.30
29849;DHT22;16728;50.832;5.590;2023-07-13T18:19:37;22.40;98.50
29849;DHT22;16728;50.832;5.590;2023-07-13T18:22:40;22.40;98.50
29849;DHT22;16728;50.832;5.590;2023-07-13T18:25:42;22.30;98.50
29849;DHT22;16728;50.832;5.590;2023-07-13T18:28:44;22.30;98.70
29849;DHT22;16728;50.832;5.590;2023-07-13T18:31:49;22.30;98.80
29849;DHT22;16728;50.832;5.590;2023-07-13T18:34:51;22.20;98.90
29849;DHT22;16728;50.832;5.590;2023-07-13T18:37:55;22.20;99.00
29849;DHT22;16728;50.832;5.590;2023-07-13T18:41:00;22.20;99.10
29849;DHT22;16728;50.832;5.590;2023-07-13T18:44:02;22.20;99.40
29849;DHT22;16728;50.832;5.590;2023-07-13T18:47:04;22.10;99.40
29849;DHT22;16728;50.832;5.590;2023-07-13T18:50:36;22.10;99.70
29849;DHT22;16728;50.832;5.590;2023-07-13T18:53:38;22.00;99.90
29849;DHT22;16728;50.832;5.590;2023-07-13T18:56:40;22.00;99.90
29849;DHT22;16728;50.832;5.590;2023-07-13T18:59:42;21.90;99.90
29849;DHT22;16728;50.832;5.590;2023-07-13T19:02:44;21.90;99.90
29849;DHT22;16728;50.832;5.590;2023-07-13T19:05:48;21.90;99.90
29849;DHT22;16728;50.832;5.590;2023-07-13T19:09:04;21.80;99.90
29849;DHT22;16728;50.832;5.590;2023-07-13T19:12:20;21.70;99.90
29849;DHT22;16728;50.832;5.590;2023-07-13T19:15:26;21.60;99.90
29849;DHT22;16728;50.832;5.590;2023-07-13T19:18:28;21.50;99.90
29849;DHT22;16728;50.832;5.590;2023-07-13T19:21:36;21.60;99.90
29849;DHT22;16728;50.832;5.590;2023-07-13T19:24:41;21.60;99.90
29849;DHT22;16728;50.832;5.590;2023-07-13T19:27:43;21.50;99.90
29849;DHT22;16728;50.832;5.590;2023-07-13T19:30:45;21.50;99.90
29849;DHT22;16728;50.832;5.590;2023-07-13T19:33:47;21.40;99.90
29849;DHT22;16728;50.832;5.590;2023-07-13T19:37:00;21.30;99.90
29849;DHT22;16728;50.832;5.590;2023-07-13T19:40:29;21.20;99.90
29849;DHT22;16728;50.832;5.590;2023-07-13T19:43:31;21.20;99.90
29849;DHT22;16728;50.832;5.590;2023-07-13T19:46:35;21.20;99.90
29849;DHT22;16728;50.832;5.590;2023-07-13T19:49:38;21.20;99.90
29849;DHT22;16728;50.832;5.590;2023-07-13T19:52:52;21.10;99.90
29849;DHT22;16728;50.832;5.590;2023-07-13T19:55:54;21.00;99.90
29849;DHT22;16728;50.832;5.590;2023-07-13T19:58:57;20.80;99.90
29849;DHT22;16728;50.832;5.590;2023-07-13T20:01:59;20.90;99.90
29849;DHT22;16728;50.832;5.590;2023-07-13T20:05:04;20.70;99.90
29849;DHT22;16728;50.832;5.590;2023-07-13T20:08:16;20.70;99.90